Time;durP1;ratioP1;P1;durP2;ratioP2;P2;SDS_P1;SDS_P2;PMS_P1;PMS_P2;Temp;Humidity;BMP_temperature;BMP_pressure;BME280_temperature;BME280_humidity;BME280_pressure;Samples;Min_cycle;Max_cycle;Signal;HPM_P1;HPM_P2
2022/06/04 00:00:32;;;;;;;5.13;1.77;;;18.60;50.10;;;;;;5043150;28;20021;-65
2022/06/04 00:02:58;;;;;;;3.47;1.55;;;18.50;50.20;;;;;;5043599;28;20033;-65
2022/06/04 00:05:30;;;;;;;5.18;1.90;;;18.50;50.30;;;;;;5046686;28;20021;-65
2022/06/04 00:07:58;;;;;;;4.43;1.92;;;18.50;50.60;;;;;;5048990;28;20043;-66
2022/06/04 00:15:57;;;;;;;5.32;2.00;;;18.40;50.90;;;;;;5044355;28;20044;-66
2022/06/04 00:18:23;;;;;;;5.30;2.00;;;18.30;51.10;;;;;;5044753;28;20026;-65
2022/06/04 00:20:50;;;;;;;4.07;1.90;;;18.30;51.30;;;;;;5053309;28;20438;-65
2022/06/04 00:23:16;;;;;;;6.28;2.33;;;18.20;51.40;;;;;;5055577;28;21207;-65
2022/06/04 00:25:47;;;;;;;5.03;2.20;;;18.20;51.60;;;;;;5042023;28;20021;-65
2022/06/04 00:28:13;;;;;;;4.57;2.07;;;18.20;51.80;;;;;;5046303;28;20032;-66
2022/06/04 00:30:40;;;;;;;4.18;1.90;;;18.10;51.80;;;;;;5055680;28;20417;-65
2022/06/04 00:33:07;;;;;;;7.50;2.10;;;18.10;51.90;;;;;;5042029;28;20439;-65
2022/06/04 00:35:34;;;;;;;4.70;2.28;;;18.10;52.10;;;;;;5052446;28;20457;-66
2022/06/04 00:38:00;;;;;;;7.57;2.30;;;18.10;52.20;;;;;;5043841;28;20082;-66
2022/06/04 00:40:44;;;;;;;4.68;2.08;;;18.00;52.20;;;;;;5056502;28;20025;-66
2022/06/04 00:43:10;;;;;;;5.78;2.17;;;18.00;52.30;;;;;;5039701;28;20431;-66
2022/06/04 00:45:35;;;;;;;4.80;1.95;;;17.90;52.40;;;;;;5050835;28;20378;-66
2022/06/04 00:48:05;;;;;;;4.35;2.00;;;17.90;52.50;;;;;;5042037;28;20029;-66
2022/06/04 00:50:34;;;;;;;4.57;2.00;;;17.90;52.60;;;;;;5045777;28;20033;-66
2022/06/04 00:53:02;;;;;;;5.22;2.45;;;17.80;52.70;;;;;;5045636;28;20442;-66
2022/06/04 00:55:38;;;;;;;4.00;1.90;;;17.80;52.80;;;;;;5057549;28;20413;-66
2022/06/04 00:58:12;;;;;;;10.00;1.98;;;17.80;52.80;;;;;;5051460;28;20029;-65
2022/06/04 01:00:50;;;;;;;4.70;2.13;;;17.70;52.90;;;;;;5053063;28;20029;-65
2022/06/04 01:03:27;;;;;;;5.18;2.25;;;17.70;53.10;;;;;;5050663;28;20466;-65
2022/06/04 01:06:11;;;;;;;5.90;2.20;;;17.70;53.10;;;;;;5044732;28;20025;-65
2022/06/04 01:08:43;;;;;;;4.78;2.10;;;17.60;53.20;;;;;;5050638;28;20028;-65
2022/06/04 01:11:22;;;;;;;4.57;2.10;;;17.50;53.30;;;;;;5052986;28;20067;-65
2022/06/04 01:13:57;;;;;;;7.10;2.20;;;17.50;53.40;;;;;;5051217;28;20033;-65
2022/06/04 01:16:37;;;;;;;6.15;2.42;;;17.50;53.50;;;;;;5052718;28;20449;-65
2022/06/04 01:19:33;;;;;;;5.57;2.33;;;17.50;53.60;;;;;;5039779;28;20053;-65
2022/06/04 01:22:32;;;;;;;6.32;2.30;;;17.50;53.60;;;;;;5035334;28;20033;-65
2022/06/04 01:25:19;;;;;;;5.45;2.60;;;17.40;53.60;;;;;;5050004;28;20327;-66
2022/06/04 01:27:51;;;;;;;6.40;2.42;;;17.40;53.70;;;;;;5045263;28;20029;-66
2022/06/04 01:30:23;;;;;;;6.38;2.55;;;17.40;53.80;;;;;;5046074;28;20032;-65
2022/06/04 01:33:06;;;;;;;5.45;2.53;;;17.30;53.90;;;;;;5047679;28;20064;-66
2022/06/04 01:35:36;;;;;;;6.65;2.40;;;17.30;54.00;;;;;;5037316;28;20087;-65
2022/06/04 01:38:17;;;;;;;5.78;2.58;;;17.30;54.20;;;;;;5049527;28;20036;-65
2022/06/04 01:41:07;;;;;;;5.13;2.03;;;17.30;54.30;;;;;;5056894;28;20029;-65
2022/06/04 01:43:41;;;;;;;7.10;2.80;;;17.30;54.40;;;;;;5035929;28;20450;-65
2022/06/04 01:46:34;;;;;;;6.72;2.70;;;17.20;54.50;;;;;;5052039;28;20021;-66
2022/06/04 01:49:09;;;;;;;6.20;3.08;;;17.20;54.60;;;;;;5043779;28;20037;-65
2022/06/04 01:51:35;;;;;;;5.30;2.58;;;17.20;54.60;;;;;;5040488;28;20032;-65
2022/06/04 01:54:08;;;;;;;7.47;3.05;;;17.10;54.60;;;;;;5038525;28;20037;-65
2022/06/04 01:56:43;;;;;;;6.32;2.97;;;17.20;54.70;;;;;;5043613;28;20025;-65
2022/06/04 01:59:13;;;;;;;6.07;2.42;;;17.20;54.80;;;;;;5036225;28;20087;-65
2022/06/04 02:01:41;;;;;;;6.60;2.80;;;17.10;54.80;;;;;;5043652;28;20032;-65
2022/06/04 02:04:13;;;;;;;6.25;2.50;;;17.10;55.10;;;;;;5053837;28;20033;-65
2022/06/04 02:06:44;;;;;;;6.25;2.47;;;17.10;54.90;;;;;;5051850;28;20502;-65
2022/06/04 02:09:15;;;;;;;6.65;2.60;;;17.10;55.10;;;;;;5038139;28;20045;-65
2022/06/04 02:11:50;;;;;;;5.72;2.85;;;17.10;55.10;;;;;;5054063;28;20025;-65
2022/06/04 02:14:15;;;;;;;5.13;2.40;;;17.10;55.10;;;;;;5042004;28;20037;-66
2022/06/04 02:16:47;;;;;;;5.75;2.80;;;17.00;55.20;;;;;;5051370;28;20021;-66
2022/06/04 02:19:13;;;;;;;5.90;2.83;;;17.00;55.30;;;;;;5044964;28;20037;-65
2022/06/04 02:21:39;;;;;;;6.80;2.97;;;17.00;55.30;;;;;;5055565;28;20053;-66
2022/06/04 02:24:06;;;;;;;8.40;3.30;;;17.00;55.40;;;;;;5032315;28;20025;-65
2022/06/04 02:26:32;;;;;;;6.50;2.95;;;16.90;55.50;;;;;;5040624;28;20024;-65
2022/06/04 02:28:59;;;;;;;7.43;2.72;;;16.90;55.60;;;;;;5045713;28;20033;-66
2022/06/04 02:32:10;;;;;;;5.82;2.90;;;17.00;55.70;;;;;;5028093;28;20025;-65
2022/06/04 02:34:51;;;;;;;7.70;2.85;;;16.90;55.60;;;;;;5026892;28;20055;-65
2022/06/04 02:37:17;;;;;;;6.45;2.78;;;16.90;55.80;;;;;;5053767;28;20052;-65
2022/06/04 02:40:00;;;;;;;6.00;2.65;;;16.90;56.40;;;;;;5045666;28;20064;-65
2022/06/04 02:42:52;;;;;;;5.72;2.80;;;16.90;55.90;;;;;;5054486;28;20040;-65
2022/06/04 02:45:50;;;;;;;9.23;3.17;;;16.90;55.90;;;;;;5032922;28;20029;-65
2022/06/04 02:48:24;;;;;;;7.13;3.15;;;16.80;55.90;;;;;;5041932;28;20454;-65
2022/06/04 02:51:17;;;;;;;6.13;2.70;;;16.80;56.10;;;;;;5040258;28;20025;-65
2022/06/04 02:53:43;;;;;;;6.13;2.80;;;16.80;56.10;;;;;;5043033;28;20028;-66
2022/06/04 02:56:15;;;;;;;6.72;3.03;;;16.80;56.10;;;;;;5042160;28;20331;-65
2022/06/04 02:58:43;;;;;;;7.95;2.70;;;16.80;56.80;;;;;;5040379;28;20039;-65
2022/06/04 03:01:11;;;;;;;7.70;3.20;;;16.80;56.30;;;;;;5042615;28;20083;-65
2022/06/04 03:03:37;;;;;;;7.20;3.13;;;16.70;56.30;;;;;;5048319;28;20116;-66
2022/06/04 03:06:07;;;;;;;6.53;3.05;;;16.70;56.50;;;;;;5051996;28;20105;-66
2022/06/04 03:08:38;;;;;;;5.68;2.88;;;16.70;56.70;;;;;;5045006;28;20040;-65
2022/06/04 03:11:04;;;;;;;7.00;2.92;;;16.70;56.80;;;;;;5032178;28;20413;-66
2022/06/04 03:13:29;;;;;;;8.18;2.70;;;16.60;57.00;;;;;;5032386;28;20029;-66
2022/06/04 03:15:56;;;;;;;7.25;3.15;;;16.60;57.10;;;;;;5032703;28;20493;-65
2022/06/04 03:18:22;;;;;;;6.60;3.10;;;16.60;57.30;;;;;;5038558;28;20117;-65
2022/06/04 03:20:47;;;;;;;8.00;3.10;;;16.50;57.30;;;;;;5038003;28;20112;-65
2022/06/04 03:23:13;;;;;;;6.60;3.30;;;16.50;57.50;;;;;;5034521;28;20061;-65
2022/06/04 03:25:39;;;;;;;8.20;3.33;;;16.50;57.60;;;;;;5032161;28;20021;-65
2022/06/04 03:28:06;;;;;;;6.55;3.00;;;16.50;57.70;;;;;;5034689;28;20033;-65
2022/06/04 03:30:32;;;;;;;7.10;3.13;;;16.50;57.80;;;;;;5031939;28;20041;-66
2022/06/04 03:32:58;;;;;;;7.38;2.85;;;16.40;57.80;;;;;;5033544;28;20049;-65
2022/06/04 03:35:24;;;;;;;6.68;2.97;;;16.40;57.90;;;;;;5036024;28;20061;-65
2022/06/04 03:37:50;;;;;;;6.82;3.33;;;16.40;58.10;;;;;;5040072;28;20112;-65
2022/06/04 03:40:16;;;;;;;6.85;3.42;;;16.40;58.20;;;;;;5034948;28;20520;-65
2022/06/04 03:42:42;;;;;;;8.90;3.50;;;16.40;58.30;;;;;;5035766;28;20366;-66
2022/06/04 03:45:09;;;;;;;5.93;2.97;;;16.40;58.40;;;;;;5032489;28;20025;-65
2022/06/04 03:47:40;;;;;;;6.85;3.08;;;16.40;58.50;;;;;;5033965;28;20037;-65
2022/06/04 03:50:09;;;;;;;6.93;3.03;;;16.40;58.50;;;;;;5038789;28;20032;-65
2022/06/04 03:52:35;;;;;;;9.18;3.75;;;16.30;58.60;;;;;;5033266;28;20029;-65
2022/06/04 03:55:02;;;;;;;5.93;2.97;;;16.30;58.60;;;;;;5031962;28;20451;-66
2022/06/04 03:57:38;;;;;;;9.38;3.50;;;16.30;58.80;;;;;;5036338;28;20470;-65
2022/06/04 04:00:27;;;;;;;7.00;3.08;;;16.40;58.90;;;;;;5033328;28;20040;-65
2022/06/04 04:02:56;;;;;;;7.22;3.28;;;16.40;59.00;;;;;;5043101;28;20033;-65
2022/06/04 04:05:28;;;;;;;6.80;3.28;;;16.30;58.90;;;;;;5042808;28;20044;-65
2022/06/04 04:07:55;;;;;;;9.25;3.65;;;16.40;59.00;;;;;;5035297;28;20131;-65
2022/06/04 04:10:22;;;;;;;8.00;3.72;;;16.40;59.00;;;;;;5033414;28;20053;-65
2022/06/04 04:12:48;;;;;;;7.13;3.70;;;16.40;59.00;;;;;;5039179;28;20446;-65
2022/06/04 04:15:15;;;;;;;8.35;3.38;;;16.40;59.10;;;;;;5042614;28;20095;-65
2022/06/04 04:17:42;;;;;;;8.95;4.00;;;16.40;59.10;;;;;;5034597;28;20034;-65
2022/06/04 04:20:17;;;;;;;8.68;3.78;;;16.50;59.10;;;;;;5050821;28;20111;-65
2022/06/04 04:22:43;;;;;;;7.38;3.60;;;16.40;59.20;;;;;;5046609;28;20033;-66
2022/06/04 04:25:11;;;;;;;6.78;3.80;;;16.40;59.30;;;;;;5043153;28;20035;-65
2022/06/04 04:27:37;;;;;;;6.82;3.53;;;16.40;59.40;;;;;;5048376;28;20037;-65
2022/06/04 04:30:05;;;;;;;8.23;3.47;;;16.40;59.40;;;;;;5042887;28;20037;-66
2022/06/04 04:32:32;;;;;;;7.60;3.67;;;16.40;59.50;;;;;;5048220;28;20041;-65
2022/06/04 04:34:58;;;;;;;6.85;3.60;;;16.40;59.50;;;;;;5047703;28;20367;-66
2022/06/04 04:37:24;;;;;;;6.72;3.55;;;16.50;59.50;;;;;;5038736;28;20108;-68
2022/06/04 04:39:50;;;;;;;8.45;3.70;;;16.50;59.50;;;;;;5043369;28;20116;-67
2022/06/04 04:42:15;;;;;;;9.55;4.45;;;16.50;59.50;;;;;;5043700;28;20025;-65
2022/06/04 04:44:41;;;;;;;9.63;4.18;;;16.50;59.50;;;;;;5049202;28;20025;-64
2022/06/04 04:47:07;;;;;;;9.13;3.85;;;16.50;59.50;;;;;;5036319;28;20111;-66
2022/06/04 04:49:32;;;;;;;7.63;4.00;;;16.50;59.50;;;;;;5045173;28;20029;-66
2022/06/04 04:51:59;;;;;;;8.95;4.10;;;16.50;59.60;;;;;;5046974;28;20127;-66
2022/06/04 04:54:25;;;;;;;9.48;4.03;;;16.50;59.60;;;;;;5043831;28;20354;-68
2022/06/04 04:56:51;;;;;;;8.13;3.65;;;16.50;59.60;;;;;;5055912;28;20037;-66
2022/06/04 04:59:17;;;;;;;8.52;4.07;;;16.60;59.70;;;;;;5056186;28;20043;-67
2022/06/04 05:01:42;;;;;;;7.57;3.90;;;16.60;59.70;;;;;;5027483;28;20110;-65
2022/06/04 05:04:08;;;;;;;8.05;4.10;;;16.60;59.60;;;;;;5051482;28;20037;-65
2022/06/04 05:06:34;;;;;;;6.97;3.80;;;16.60;60.20;;;;;;5050775;28;20021;-64
2022/06/04 05:09:00;;;;;;;8.80;4.07;;;16.70;59.50;;;;;;5052177;28;20041;-65
2022/06/04 05:11:29;;;;;;;7.57;3.88;;;16.90;59.40;;;;;;5050812;28;20067;-65
2022/06/04 05:13:56;;;;;;;8.30;3.55;;;17.10;59.00;;;;;;5057107;28;20087;-65
2022/06/04 05:16:34;;;;;;;8.68;3.88;;;17.30;58.40;;;;;;5052218;28;20108;-65
2022/06/04 05:19:02;;;;;;;7.63;3.83;;;17.60;58.00;;;;;;5027780;28;20041;-65
2022/06/04 05:21:41;;;;;;;9.18;4.13;;;17.60;57.80;;;;;;5044900;28;20448;-65
2022/06/04 05:24:07;;;;;;;9.95;4.00;;;17.60;58.00;;;;;;5038444;28;20029;-64
2022/06/04 05:26:33;;;;;;;7.22;3.65;;;17.50;58.00;;;;;;5042275;28;20061;-65
2022/06/04 05:28:59;;;;;;;7.22;3.38;;;17.40;58.20;;;;;;5038949;28;20040;-64
2022/06/04 05:31:25;;;;;;;8.63;3.78;;;17.40;58.40;;;;;;5045803;28;20029;-63
2022/06/04 05:33:50;;;;;;;9.23;4.25;;;17.30;58.60;;;;;;5041249;28;20063;-63
2022/06/04 05:36:16;;;;;;;7.00;3.72;;;17.30;58.70;;;;;;5044882;28;20445;-64
2022/06/04 05:38:42;;;;;;;10.77;3.80;;;17.30;58.80;;;;;;5050113;28;20108;-63
2022/06/04 05:41:11;;;;;;;8.18;3.78;;;17.30;58.70;;;;;;5056714;28;20025;-64
2022/06/04 05:43:39;;;;;;;7.55;3.70;;;17.20;59.40;;;;;;5047608;28;20029;-65
2022/06/04 05:46:07;;;;;;;7.65;3.95;;;17.20;58.80;;;;;;5046805;28;20029;-64
2022/06/04 05:48:37;;;;;;;10.35;3.92;;;17.20;58.80;;;;;;5051689;28;20108;-64
2022/06/04 05:51:03;;;;;;;8.68;3.88;;;17.20;58.80;;;;;;5055252;28;20030;-68
2022/06/04 05:53:29;;;;;;;8.75;3.95;;;17.20;59.40;;;;;;5045635;28;20013;-68
2022/06/04 05:55:55;;;;;;;7.95;3.67;;;17.30;58.80;;;;;;5061280;28;20025;-64
2022/06/04 05:58:21;;;;;;;9.43;4.18;;;17.30;58.60;;;;;;5045201;28;20354;-64
2022/06/04 06:00:46;;;;;;;10.10;3.63;;;17.40;58.60;;;;;;5045543;28;20501;-64
2022/06/04 06:03:12;;;;;;;9.15;4.03;;;17.40;58.50;;;;;;5045088;28;20435;-65
2022/06/04 06:05:44;;;;;;;8.55;4.00;;;17.40;58.50;;;;;;5035158;28;20120;-67
2022/06/04 06:08:10;;;;;;;;;;;17.40;58.40;;;;;;5041956;28;20330;-64
2022/06/04 06:10:44;;;;;;;7.93;3.10;;;17.50;58.40;;;;;;5046637;28;20313;-67
2022/06/04 06:13:10;;;;;;;7.50;3.30;;;17.50;58.30;;;;;;5027402;28;20038;-65
2022/06/04 06:15:36;;;;;;;7.18;3.85;;;17.50;58.30;;;;;;5055189;28;20075;-65
2022/06/04 06:18:03;;;;;;;7.30;3.65;;;17.50;58.30;;;;;;5046821;28;20113;-65
2022/06/04 06:20:29;;;;;;;8.80;4.28;;;17.50;58.30;;;;;;5053935;28;20100;-64
2022/06/04 06:22:55;;;;;;;7.75;3.72;;;17.50;58.30;;;;;;5046436;28;20032;-64
2022/06/04 06:25:21;;;;;;;8.73;4.00;;;17.60;58.30;;;;;;5040590;28;20382;-65
2022/06/04 06:27:47;;;;;;;8.00;3.25;;;17.60;58.20;;;;;;5047841;28;20048;-65
2022/06/04 06:30:13;;;;;;;7.60;3.63;;;17.70;58.20;;;;;;5041031;28;20033;-65
2022/06/04 06:32:40;;;;;;;8.07;3.55;;;17.70;58.20;;;;;;5048990;28;20065;-65
2022/06/04 06:35:06;;;;;;;9.35;3.85;;;17.70;58.30;;;;;;5040549;28;20108;-65
2022/06/04 06:37:32;;;;;;;9.02;4.07;;;17.70;58.30;;;;;;5020681;28;20104;-63
2022/06/04 06:39:58;;;;;;;9.15;4.25;;;17.70;58.30;;;;;;5046867;28;20028;-64
2022/06/04 06:42:23;;;;;;;7.43;3.67;;;17.80;58.40;;;;;;5053038;28;20033;-64
2022/06/04 06:44:57;;;;;;;6.47;3.80;;;17.80;58.40;;;;;;5053315;28;20024;-64
2022/06/04 06:47:23;;;;;;;8.27;4.03;;;17.80;58.40;;;;;;5054336;28;20029;-65
2022/06/04 06:49:49;;;;;;;7.88;3.85;;;17.80;58.50;;;;;;5051137;28;20460;-64
2022/06/04 06:52:16;;;;;;;10.75;4.40;;;17.80;58.50;;;;;;5055658;28;20025;-64
2022/06/04 06:54:42;;;;;;;7.15;3.78;;;17.80;58.50;;;;;;5052797;28;20055;-64
2022/06/04 06:57:11;;;;;;;7.35;3.58;;;17.80;58.50;;;;;;5054451;28;20036;-64
2022/06/04 06:59:43;;;;;;;8.27;4.35;;;17.80;58.50;;;;;;5052127;28;20032;-64
2022/06/04 07:02:09;;;;;;;7.95;4.07;;;17.80;58.60;;;;;;5054080;28;20033;-64
2022/06/04 07:04:35;;;;;;;9.60;4.63;;;17.80;58.70;;;;;;5052440;28;20059;-64
2022/06/04 07:07:02;;;;;;;8.02;3.78;;;17.80;58.70;;;;;;5052611;28;20025;-64
2022/06/04 07:09:36;;;;;;;10.43;4.28;;;17.70;58.70;;;;;;5048917;28;20473;-64
2022/06/04 07:12:06;;;;;;;7.80;3.80;;;17.70;58.80;;;;;;5048875;28;20374;-64
2022/06/04 07:14:32;;;;;;;9.73;4.15;;;17.80;58.80;;;;;;5044466;28;20021;-64
2022/06/04 07:16:58;;;;;;;10.40;4.40;;;17.70;58.80;;;;;;5041813;28;20028;-64
2022/06/04 07:19:25;;;;;;;9.15;4.45;;;17.80;58.80;;;;;;5040783;28;20017;-64
2022/06/04 07:21:52;;;;;;;7.63;3.90;;;17.80;58.90;;;;;;5028183;28;20041;-65
2022/06/04 07:24:18;;;;;;;8.80;4.22;;;17.80;58.90;;;;;;5048096;28;20447;-64
2022/06/04 07:26:44;;;;;;;9.02;3.88;;;17.80;58.90;;;;;;5037041;28;20043;-63
2022/06/04 07:29:11;;;;;;;6.57;3.92;;;17.80;59.00;;;;;;5036464;28;20028;-63
2022/06/04 07:31:37;;;;;;;6.85;3.65;;;17.80;58.90;;;;;;5045069;28;20029;-64
2022/06/04 07:34:03;;;;;;;9.60;4.30;;;17.90;59.00;;;;;;5054451;28;20037;-63
2022/06/04 07:36:34;;;;;;;8.07;4.00;;;18.00;58.90;;;;;;5054544;28;20446;-63
2022/06/04 07:39:01;;;;;;;;;;;18.00;58.80;;;;;;5043985;28;20029;-63
2022/06/04 07:41:29;;;;;;;8.60;3.75;;;18.10;58.60;;;;;;5047031;28;19909;-63
2022/06/04 07:43:55;;;;;;;8.07;3.83;;;18.10;58.60;;;;;;5054022;28;20665;-63
2022/06/04 07:46:22;;;;;;;10.13;4.38;;;18.20;58.60;;;;;;5044737;28;20106;-63
2022/06/04 07:48:48;;;;;;;8.10;4.05;;;18.20;58.40;;;;;;5035874;28;20055;-64
2022/06/04 07:51:15;;;;;;;8.27;4.18;;;18.30;58.40;;;;;;5034790;28;20029;-64
2022/06/04 07:53:42;;;;;;;7.63;4.07;;;18.30;58.40;;;;;;5044797;28;20029;-63
2022/06/04 07:56:12;;;;;;;7.43;4.32;;;18.30;58.30;;;;;;5052537;28;20458;-64
2022/06/04 07:58:38;;;;;;;8.07;4.30;;;18.30;58.30;;;;;;5053416;28;20092;-63
2022/06/04 08:01:05;;;;;;;8.85;4.20;;;18.40;58.30;;;;;;5054378;28;20091;-63
2022/06/04 08:03:33;;;;;;;8.85;4.25;;;18.40;58.10;;;;;;5049933;28;20112;-64
2022/06/04 08:05:59;;;;;;;7.22;3.90;;;18.40;58.10;;;;;;5048053;28;20460;-64
2022/06/04 08:08:25;;;;;;;8.43;4.32;;;18.50;58.10;;;;;;5054401;28;20307;-63
2022/06/04 08:10:51;;;;;;;8.35;4.13;;;18.60;58.10;;;;;;5053013;28;20049;-64
2022/06/04 08:13:28;;;;;;;7.93;4.00;;;18.60;57.90;;;;;;5055432;28;20477;-63
2022/06/04 08:15:55;;;;;;;8.10;4.38;;;18.70;58.40;;;;;;5055689;28;20025;-64
2022/06/04 08:18:21;;;;;;;6.55;3.78;;;18.70;57.80;;;;;;5047379;28;20034;-64
2022/06/04 08:20:47;;;;;;;7.97;4.38;;;18.80;57.60;;;;;;5033389;28;20021;-63
2022/06/04 08:23:14;;;;;;;9.30;4.07;;;18.80;57.40;;;;;;5055393;28;20134;-65
2022/06/04 08:25:48;;;;;;;8.25;3.92;;;18.80;57.30;;;;;;5044380;28;20034;-63
2022/06/04 08:28:17;;;;;;;8.02;3.80;;;18.90;57.20;;;;;;5045321;28;20033;-64
2022/06/04 08:30:44;;;;;;;7.78;4.07;;;19.00;57.00;;;;;;5055722;28;20044;-64
2022/06/04 08:33:10;;;;;;;10.35;4.57;;;19.10;57.00;;;;;;5044878;28;20033;-63
2022/06/04 08:35:36;;;;;;;6.30;3.25;;;19.10;57.00;;;;;;5048873;28;20072;-64
2022/06/04 08:38:02;;;;;;;6.55;3.70;;;19.10;57.00;;;;;;5051231;28;20025;-64
2022/06/04 08:40:42;;;;;;;8.20;3.80;;;19.10;56.90;;;;;;5042523;28;20055;-64
2022/06/04 08:43:30;;;;;;;7.22;3.65;;;19.20;56.80;;;;;;5047503;28;20047;-64
2022/06/04 08:45:56;;;;;;;7.55;3.92;;;19.30;56.80;;;;;;5053806;28;20124;-64
2022/06/04 08:48:28;;;;;;;8.27;4.10;;;19.30;56.80;;;;;;5045535;28;20518;-64
2022/06/04 08:50:54;;;;;;;7.38;3.92;;;19.40;56.80;;;;;;5043284;28;20381;-64
2022/06/04 08:53:25;;;;;;;7.85;4.00;;;19.40;56.60;;;;;;5038353;28;20044;-65
2022/06/04 08:58:40;;;;;;;7.82;4.03;;;19.50;56.50;;;;;;5051359;28;20387;-65
2022/06/04 09:01:14;;;;;;;8.43;4.03;;;19.50;56.40;;;;;;5044608;28;20076;-64
2022/06/04 09:03:50;;;;;;;8.18;3.67;;;19.50;56.40;;;;;;5038350;28;20072;-64
2022/06/04 09:06:27;;;;;;;7.82;4.43;;;19.50;56.30;;;;;;5036427;28;20044;-65
2022/06/04 09:09:14;;;;;;;9.02;4.25;;;19.60;56.20;;;;;;5038177;28;20030;-64
2022/06/04 09:12:07;;;;;;;9.75;4.15;;;19.70;56.00;;;;;;5036967;28;20092;-63
2022/06/04 09:14:38;;;;;;;9.02;3.45;;;19.80;56.00;;;;;;5042111;28;20072;-64
2022/06/04 09:17:11;;;;;;;;;;;19.80;55.80;;;;;;5039694;28;20048;-64
2022/06/04 09:19:38;;;;;;;6.30;3.17;;;20.00;55.70;;;;;;5040588;28;20245;-64
2022/06/04 09:22:17;;;;;;;7.97;3.72;;;20.00;55.60;;;;;;5036199;28;20447;-64
2022/06/04 09:24:42;;;;;;;7.43;4.05;;;20.10;55.30;;;;;;5042522;28;20129;-64
2022/06/04 09:27:35;;;;;;;7.55;3.80;;;20.10;55.20;;;;;;5040086;28;20055;-64
2022/06/04 09:30:24;;;;;;;7.07;3.33;;;20.20;55.10;;;;;;5041025;28;20438;-63
2022/06/04 09:33:27;;;;;;;8.23;4.03;;;20.30;55.10;;;;;;5040773;28;20045;-63
2022/06/04 09:35:55;;;;;;;9.00;3.80;;;20.40;54.90;;;;;;5049900;28;20435;-64
2022/06/04 09:38:31;;;;;;;8.20;3.85;;;20.40;54.80;;;;;;5041497;28;20056;-65
2022/06/04 09:41:06;;;;;;;8.27;3.53;;;20.50;54.70;;;;;;5039968;28;20033;-65
2022/06/04 09:43:33;;;;;;;9.68;4.10;;;20.50;54.60;;;;;;5054515;28;20057;-64
2022/06/04 09:46:04;;;;;;;9.15;3.92;;;20.60;54.40;;;;;;5039123;28;20028;-64
2022/06/04 09:48:33;;;;;;;7.30;3.80;;;20.70;54.10;;;;;;5052673;28;20118;-65
2022/06/04 09:51:08;;;;;;;9.43;3.67;;;20.80;53.90;;;;;;5047050;28;20033;-64
2022/06/04 09:53:42;;;;;;;7.97;4.32;;;20.80;53.70;;;;;;5047492;28;20033;-64
2022/06/04 09:56:30;;;;;;;7.30;3.58;;;20.90;53.70;;;;;;5045363;28;20036;-66
2022/06/04 09:59:20;;;;;;;9.65;3.50;;;21.00;53.60;;;;;;5053037;28;20029;-65
2022/06/04 10:02:01;;;;;;;7.03;3.35;;;21.00;53.60;;;;;;5052363;28;20037;-66
2022/06/04 10:04:44;;;;;;;7.22;3.58;;;21.10;53.60;;;;;;5050765;28;20366;-66
2022/06/04 10:07:28;;;;;;;8.38;3.17;;;21.20;53.50;;;;;;5048150;28;20034;-64
2022/06/04 10:09:56;;;;;;;7.88;3.55;;;21.20;53.40;;;;;;5050674;28;20049;-66
2022/06/04 10:15:30;;;;;;;8.40;3.72;;;21.30;53.30;;;;;;5045569;28;20036;-68
2022/06/04 10:18:16;;;;;;;6.65;3.35;;;21.40;53.20;;;;;;5054054;28;20506;-65
2022/06/04 10:20:50;;;;;;;6.15;3.10;;;21.50;53.00;;;;;;5048112;28;20017;-65
2022/06/04 10:23:16;;;;;;;8.15;3.33;;;21.60;53.10;;;;;;5055550;28;20124;-64
2022/06/04 10:26:25;;;;;;;8.05;3.78;;;21.70;52.90;;;;;;5043410;28;20104;-63
2022/06/04 10:29:13;;;;;;;8.98;3.70;;;21.80;52.50;;;;;;5035818;28;20037;-65
2022/06/04 10:32:10;;;;;;;9.57;3.42;;;21.90;52.10;;;;;;5046609;28;20101;-63
2022/06/04 10:35:16;;;;;;;7.18;3.33;;;21.90;51.90;;;;;;5049581;28;20118;-64
2022/06/04 10:38:01;;;;;;;6.60;3.17;;;21.90;51.80;;;;;;5010734;28;20025;-63
2022/06/04 10:40:41;;;;;;;7.22;3.17;;;22.00;51.80;;;;;;5025236;28;20077;-63
2022/06/04 10:43:35;;;;;;;6.60;3.53;;;22.10;51.90;;;;;;5028843;28;20070;-64
2022/06/04 10:46:08;;;;;;;7.10;3.20;;;22.10;51.50;;;;;;5027754;28;20056;-64
2022/06/04 10:49:00;;;;;;;7.15;3.58;;;22.10;51.20;;;;;;5031604;28;21466;-66
2022/06/04 10:51:36;;;;;;;;;;;22.10;51.10;;;;;;5021404;28;20149;-64
2022/06/04 10:54:16;;;;;;;7.20;2.83;;;22.10;51.20;;;;;;5029231;28;20312;-64
2022/06/04 10:56:50;;;;;;;6.85;3.03;;;22.20;51.40;;;;;;5030160;28;20052;-64
2022/06/04 10:59:35;;;;;;;7.35;3.28;;;22.20;51.30;;;;;;5033734;28;20050;-64
2022/06/04 11:02:20;;;;;;;6.97;3.10;;;22.20;51.00;;;;;;5033710;28;20091;-63
2022/06/04 11:04:50;;;;;;;7.15;3.50;;;22.20;51.00;;;;;;5010576;28;20154;-64
2022/06/04 11:07:57;;;;;;;6.65;3.25;;;22.30;50.80;;;;;;5019223;28;20025;-64
2022/06/04 11:10:36;;;;;;;6.68;2.80;;;22.30;50.70;;;;;;4965467;28;20047;-64
2022/06/04 11:13:11;;;;;;;5.85;2.75;;;22.30;50.70;;;;;;5006404;28;20112;-64
2022/06/04 11:15:50;;;;;;;7.82;3.35;;;22.40;51.40;;;;;;5009729;28;20149;-64
2022/06/04 11:18:25;;;;;;;6.97;2.95;;;22.40;50.60;;;;;;5009510;28;20045;-64
2022/06/04 11:21:02;;;;;;;6.00;2.70;;;22.50;50.70;;;;;;5012629;28;20034;-64
2022/06/04 11:23:44;;;;;;;5.35;2.78;;;22.60;50.60;;;;;;5012283;28;20037;-64
2022/06/04 11:26:23;;;;;;;6.15;2.80;;;22.70;50.40;;;;;;4991128;28;20041;-64
2022/06/04 11:28:49;;;;;;;5.65;3.00;;;22.90;50.50;;;;;;5009637;28;20033;-65
2022/06/04 11:31:28;;;;;;;7.00;3.42;;;23.10;50.20;;;;;;4997118;28;20038;-64
2022/06/04 11:34:20;;;;;;;5.57;2.60;;;23.30;49.80;;;;;;5003426;28;20046;-63
2022/06/04 11:37:23;;;;;;;5.57;2.75;;;23.60;49.50;;;;;;4997150;28;20034;-63
2022/06/04 11:40:16;;;;;;;7.30;3.05;;;23.80;49.00;;;;;;4982840;28;20356;-64
2022/06/04 11:42:59;;;;;;;7.00;2.80;;;24.10;48.70;;;;;;4994913;28;20100;-64
2022/06/04 11:46:01;;;;;;;6.18;2.75;;;24.20;48.40;;;;;;5042026;28;20413;-64
2022/06/04 11:48:56;;;;;;;6.18;3.03;;;24.30;48.30;;;;;;5048482;28;20040;-64
2022/06/04 11:51:37;;;;;;;5.03;2.28;;;24.30;48.00;;;;;;5039578;28;20049;-64
2022/06/04 11:54:34;;;;;;;4.55;2.50;;;24.40;48.00;;;;;;5047679;28;20048;-63
2022/06/04 11:57:11;;;;;;;7.35;2.60;;;24.50;48.00;;;;;;5049372;28;20029;-64
2022/06/04 11:59:55;;;;;;;6.38;2.75;;;24.50;47.80;;;;;;5048357;28;20029;-64
2022/06/04 12:02:45;;;;;;;4.95;2.35;;;24.50;47.60;;;;;;5043923;28;20109;-64
2022/06/04 12:05:37;;;;;;;5.80;2.60;;;24.60;48.40;;;;;;5038838;28;20040;-64
2022/06/04 12:08:08;;;;;;;5.57;2.40;;;24.60;47.50;;;;;;5038346;28;20354;-64
2022/06/04 12:11:04;;;;;;;4.90;2.63;;;24.60;47.60;;;;;;5042027;28;20056;-64
2022/06/04 12:13:53;;;;;;;6.68;3.05;;;24.60;47.60;;;;;;5047074;28;20040;-64
2022/06/04 12:16:42;;;;;;;6.22;2.65;;;24.60;47.40;;;;;;5048171;28;20025;-64
2022/06/04 12:25:18;;;;;;;5.80;2.35;;;25.00;47.10;;;;;;5038311;28;19931;-64
2022/06/04 12:28:02;;;;;;;5.18;2.20;;;25.00;46.80;;;;;;5038266;28;20021;-65
2022/06/04 12:30:39;;;;;;;5.50;2.40;;;25.10;46.70;;;;;;5033506;28;20040;-65
2022/06/04 12:33:23;;;;;;;6.10;2.92;;;25.10;46.60;;;;;;5041295;28;20094;-65
2022/06/04 12:35:55;;;;;;;7.85;2.78;;;25.00;46.60;;;;;;5036662;28;20090;-65
2022/06/04 12:38:23;;;;;;;6.60;2.85;;;25.00;46.70;;;;;;5036013;28;20037;-64
2022/06/04 12:40:50;;;;;;;6.68;2.95;;;24.90;46.70;;;;;;5033786;28;20026;-66
2022/06/04 12:43:27;;;;;;;6.82;2.75;;;24.80;46.70;;;;;;5036059;28;20362;-65
2022/06/04 12:46:09;;;;;;;5.80;2.72;;;24.80;46.70;;;;;;5037588;28;20075;-65
2022/06/04 12:49:01;;;;;;;5.78;2.50;;;24.80;46.50;;;;;;5039498;28;20103;-65
2022/06/04 12:51:26;;;;;;;6.05;3.08;;;24.80;46.60;;;;;;5010079;28;20434;-65
2022/06/04 12:54:01;;;;;;;6.43;3.05;;;24.70;46.70;;;;;;5024911;28;20038;-65
2022/06/04 12:56:31;;;;;;;7.20;3.10;;;24.80;46.70;;;;;;5024744;28;20046;-64
2022/06/04 12:59:00;;;;;;;5.97;2.85;;;24.80;46.80;;;;;;5023104;28;20040;-65
2022/06/04 13:01:34;;;;;;;6.30;2.80;;;24.70;46.70;;;;;;5024932;28;20048;-64
2022/06/04 13:04:11;;;;;;;5.75;2.85;;;24.70;46.60;;;;;;5023309;28;20039;-65
2022/06/04 13:06:57;;;;;;;7.35;3.17;;;24.70;46.50;;;;;;5024549;28;20042;-65
2022/06/04 13:09:52;;;;;;;6.93;2.80;;;24.60;46.40;;;;;;5024924;28;20121;-66
2022/06/04 13:12:27;;;;;;;6.00;2.78;;;24.50;46.50;;;;;;5029957;28;20042;-65
2022/06/04 13:15:13;;;;;;;6.65;3.25;;;24.40;46.60;;;;;;5024173;28;20038;-64
2022/06/04 13:17:44;;;;;;;6.75;2.90;;;24.30;46.70;;;;;;5000848;28;20136;-65
2022/06/04 13:20:25;;;;;;;7.50;3.22;;;24.30;46.90;;;;;;5024916;28;20029;-65
2022/06/04 13:22:57;;;;;;;5.72;2.85;;;24.30;46.90;;;;;;4994100;28;20037;-65
2022/06/04 13:25:36;;;;;;;6.30;3.10;;;24.30;47.00;;;;;;5031735;28;20398;-66
2022/06/04 13:28:02;;;;;;;6.18;3.33;;;24.20;47.00;;;;;;5027753;28;20040;-66
2022/06/04 13:30:32;;;;;;;6.03;3.30;;;24.20;46.90;;;;;;5057008;28;20163;-65
2022/06/04 13:33:06;;;;;;;6.43;3.33;;;24.20;46.80;;;;;;5051729;28;20025;-64
2022/06/04 13:35:37;;;;;;;5.63;2.97;;;24.20;46.80;;;;;;5056838;28;20442;-65